sensor_id;sensor_type;location;lat;lon;timestamp;temperature;humidity
14475;DHT22;7323;50.848;4.334;2024-03-25T00:00:17;7.00;55.60
14475;DHT22;7323;50.848;4.334;2024-03-25T00:02:44;7.10;47.00
14475;DHT22;7323;50.848;4.334;2024-03-25T00:05:09;7.10;43.70
14475;DHT22;7323;50.848;4.334;2024-03-25T00:07:38;7.10;45.50
14475;DHT22;7323;50.848;4.334;2024-03-25T00:10:05;7.10;43.00
14475;DHT22;7323;50.848;4.334;2024-03-25T00:12:34;7.00;43.60
14475;DHT22;7323;50.848;4.334;2024-03-25T00:15:00;6.80;50.80
14475;DHT22;7323;50.848;4.334;2024-03-25T00:17:26;6.70;56.30
14475;DHT22;7323;50.848;4.334;2024-03-25T00:19:52;6.80;60.20
14475;DHT22;7323;50.848;4.334;2024-03-25T00:22:19;6.60;59.90
14475;DHT22;7323;50.848;4.334;2024-03-25T00:24:45;6.50;67.70
14475;DHT22;7323;50.848;4.334;2024-03-25T00:27:14;6.50;74.70
14475;DHT22;7323;50.848;4.334;2024-03-25T00:29:41;6.40;79.20
14475;DHT22;7323;50.848;4.334;2024-03-25T00:32:07;6.50;81.60
14475;DHT22;7323;50.848;4.334;2024-03-25T00:34:36;6.40;80.80
14475;DHT22;7323;50.848;4.334;2024-03-25T00:37:02;6.50;84.60
14475;DHT22;7323;50.848;4.334;2024-03-25T00:39:30;6.70;70.90
14475;DHT22;7323;50.848;4.334;2024-03-25T00:41:58;6.80;59.20
14475;DHT22;7323;50.848;4.334;2024-03-25T00:44:24;6.80;58.60
14475;DHT22;7323;50.848;4.334;2024-03-25T00:46:50;6.80;54.80
14475;DHT22;7323;50.848;4.334;2024-03-25T00:49:16;6.70;56.70
14475;DHT22;7323;50.848;4.334;2024-03-25T00:51:42;6.80;58.80
14475;DHT22;7323;50.848;4.334;2024-03-25T00:54:08;6.80;57.50
14475;DHT22;7323;50.848;4.334;2024-03-25T00:56:33;6.60;55.40
14475;DHT22;7323;50.848;4.334;2024-03-25T00:58:59;6.70;61.70
14475;DHT22;7323;50.848;4.334;2024-03-25T01:01:34;6.70;60.70
14475;DHT22;7323;50.848;4.334;2024-03-25T01:04:01;6.70;59.90
14475;DHT22;7323;50.848;4.334;2024-03-25T01:06:27;6.70;62.80
14475;DHT22;7323;50.848;4.334;2024-03-25T01:08:53;6.70;62.90
14475;DHT22;7323;50.848;4.334;2024-03-25T01:11:19;6.80;63.10
14475;DHT22;7323;50.848;4.334;2024-03-25T01:13:45;6.90;58.40
14475;DHT22;7323;50.848;4.334;2024-03-25T01:16:11;7.10;50.60
14475;DHT22;7323;50.848;4.334;2024-03-25T01:18:37;7.10;42.00
14475;DHT22;7323;50.848;4.334;2024-03-25T01:21:04;7.10;35.40
14475;DHT22;7323;50.848;4.334;2024-03-25T01:23:30;7.00;33.00
14475;DHT22;7323;50.848;4.334;2024-03-25T01:25:56;7.10;35.20
14475;DHT22;7323;50.848;4.334;2024-03-25T01:28:22;6.90;40.20
14475;DHT22;7323;50.848;4.334;2024-03-25T01:30:48;6.60;45.10
14475;DHT22;7323;50.848;4.334;2024-03-25T01:33:14;6.50;55.40
14475;DHT22;7323;50.848;4.334;2024-03-25T01:35:40;6.70;58.30
14475;DHT22;7323;50.848;4.334;2024-03-25T01:38:06;6.40;58.40
14475;DHT22;7323;50.848;4.334;2024-03-25T01:40:33;6.30;69.50
14475;DHT22;7323;50.848;4.334;2024-03-25T01:43:03;6.40;70.20
14475;DHT22;7323;50.848;4.334;2024-03-25T01:45:30;6.50;67.00
14475;DHT22;7323;50.848;4.334;2024-03-25T01:47:57;6.60;61.20
14475;DHT22;7323;50.848;4.334;2024-03-25T01:50:24;6.60;60.20
14475;DHT22;7323;50.848;4.334;2024-03-25T01:52:51;6.40;64.90
14475;DHT22;7323;50.848;4.334;2024-03-25T01:55:27;6.60;65.40
14475;DHT22;7323;50.848;4.334;2024-03-25T01:57:53;6.60;59.60
14475;DHT22;7323;50.848;4.334;2024-03-25T02:00:20;6.50;63.10
14475;DHT22;7323;50.848;4.334;2024-03-25T02:02:46;6.40;68.40
14475;DHT22;7323;50.848;4.334;2024-03-25T02:05:16;6.50;74.10
14475;DHT22;7323;50.848;4.334;2024-03-25T02:07:44;6.60;63.20
14475;DHT22;7323;50.848;4.334;2024-03-25T02:10:10;6.70;57.00
14475;DHT22;7323;50.848;4.334;2024-03-25T02:12:37;6.50;57.60
14475;DHT22;7323;50.848;4.334;2024-03-25T02:15:05;6.30;66.00
14475;DHT22;7323;50.848;4.334;2024-03-25T02:17:30;6.10;78.60
14475;DHT22;7323;50.848;4.334;2024-03-25T02:19:56;6.20;89.70
14475;DHT22;7323;50.848;4.334;2024-03-25T02:22:22;6.40;89.40
14475;DHT22;7323;50.848;4.334;2024-03-25T02:24:51;6.60;78.60
14475;DHT22;7323;50.848;4.334;2024-03-25T02:27:18;6.60;69.70
14475;DHT22;7323;50.848;4.334;2024-03-25T02:29:43;6.60;62.10
14475;DHT22;7323;50.848;4.334;2024-03-25T02:32:10;6.60;58.10
14475;DHT22;7323;50.848;4.334;2024-03-25T02:34:47;6.70;59.10
14475;DHT22;7323;50.848;4.334;2024-03-25T02:37:13;6.40;62.30
14475;DHT22;7323;50.848;4.334;2024-03-25T02:39:39;6.20;75.50
14475;DHT22;7323;50.848;4.334;2024-03-25T02:42:05;6.10;89.30
14475;DHT22;7323;50.848;4.334;2024-03-25T02:44:32;6.00;94.50
14475;DHT22;7323;50.848;4.334;2024-03-25T02:46:58;6.10;95.50
14475;DHT22;7323;50.848;4.334;2024-03-25T02:49:25;6.10;95.00
14475;DHT22;7323;50.848;4.334;2024-03-25T02:51:51;6.00;95.00
14475;DHT22;7323;50.848;4.334;2024-03-25T02:54:17;6.10;97.60
14475;DHT22;7323;50.848;4.334;2024-03-25T02:56:43;6.10;97.90
14475;DHT22;7323;50.848;4.334;2024-03-25T02:59:10;6.00;97.10
14475;DHT22;7323;50.848;4.334;2024-03-25T03:01:36;6.00;98.90
14475;DHT22;7323;50.848;4.334;2024-03-25T03:04:01;6.00;99.70
14475;DHT22;7323;50.848;4.334;2024-03-25T03:06:27;6.10;99.70
14475;DHT22;7323;50.848;4.334;2024-03-25T03:08:53;6.00;96.20
14475;DHT22;7323;50.848;4.334;2024-03-25T03:11:18;5.90;97.50
14475;DHT22;7323;50.848;4.334;2024-03-25T03:13:44;5.90;99.90
14475;DHT22;7323;50.848;4.334;2024-03-25T03:16:09;5.90;99.90
14475;DHT22;7323;50.848;4.334;2024-03-25T03:18:35;6.10;99.90
14475;DHT22;7323;50.848;4.334;2024-03-25T03:21:01;6.20;99.90
14475;DHT22;7323;50.848;4.334;2024-03-25T03:23:27;6.20;98.80
14475;DHT22;7323;50.848;4.334;2024-03-25T03:25:52;6.30;99.00
14475;DHT22;7323;50.848;4.334;2024-03-25T03:28:18;6.20;99.50
14475;DHT22;7323;50.848;4.334;2024-03-25T03:30:44;6.10;99.90
14475;DHT22;7323;50.848;4.334;2024-03-25T03:33:10;6.30;99.90
14475;DHT22;7323;50.848;4.334;2024-03-25T03:35:35;6.30;99.90
14475;DHT22;7323;50.848;4.334;2024-03-25T03:38:01;6.40;99.90
14475;DHT22;7323;50.848;4.334;2024-03-25T03:40:29;6.40;99.90
14475;DHT22;7323;50.848;4.334;2024-03-25T03:42:55;6.50;99.90
14475;DHT22;7323;50.848;4.334;2024-03-25T03:45:24;6.60;99.90
14475;DHT22;7323;50.848;4.334;2024-03-25T03:47:49;6.60;99.90
14475;DHT22;7323;50.848;4.334;2024-03-25T03:50:15;6.60;99.90
14475;DHT22;7323;50.848;4.334;2024-03-25T03:52:41;6.70;99.90
14475;DHT22;7323;50.848;4.334;2024-03-25T03:55:07;6.80;99.90
14475;DHT22;7323;50.848;4.334;2024-03-25T03:57:32;6.70;99.90
14475;DHT22;7323;50.848;4.334;2024-03-25T03:59:58;6.60;99.90
14475;DHT22;7323;50.848;4.334;2024-03-25T04:02:25;6.60;99.90
14475;DHT22;7323;50.848;4.334;2024-03-25T04:04:51;6.60;99.90
14475;DHT22;7323;50.848;4.334;2024-03-25T04:07:17;6.70;99.90
14475;DHT22;7323;50.848;4.334;2024-03-25T04:09:43;6.90;99.90
14475;DHT22;7323;50.848;4.334;2024-03-25T04:12:08;6.80;99.90
14475;DHT22;7323;50.848;4.334;2024-03-25T04:14:34;6.90;99.90
14475;DHT22;7323;50.848;4.334;2024-03-25T04:17:00;6.70;99.90
14475;DHT22;7323;50.848;4.334;2024-03-25T04:19:26;6.60;99.90
14475;DHT22;7323;50.848;4.334;2024-03-25T04:21:55;6.70;99.90
14475;DHT22;7323;50.848;4.334;2024-03-25T04:24:21;6.70;99.90
14475;DHT22;7323;50.848;4.334;2024-03-25T04:26:47;6.80;99.90
14475;DHT22;7323;50.848;4.334;2024-03-25T04:29:15;6.80;99.90
14475;DHT22;7323;50.848;4.334;2024-03-25T04:31:41;6.70;99.90
14475;DHT22;7323;50.848;4.334;2024-03-25T04:34:07;6.80;99.90
14475;DHT22;7323;50.848;4.334;2024-03-25T04:36:32;6.80;99.90
14475;DHT22;7323;50.848;4.334;2024-03-25T04:38:58;6.70;99.90
14475;DHT22;7323;50.848;4.334;2024-03-25T04:41:24;6.90;99.90
14475;DHT22;7323;50.848;4.334;2024-03-25T04:43:49;6.70;99.90
14475;DHT22;7323;50.848;4.334;2024-03-25T04:46:15;6.80;99.90
14475;DHT22;7323;50.848;4.334;2024-03-25T04:48:40;6.70;99.90
14475;DHT22;7323;50.848;4.334;2024-03-25T04:51:06;6.70;99.90
14475;DHT22;7323;50.848;4.334;2024-03-25T04:53:34;6.70;99.90
14475;DHT22;7323;50.848;4.334;2024-03-25T04:56:00;6.80;99.90
14475;DHT22;7323;50.848;4.334;2024-03-25T04:58:26;6.80;99.90
14475;DHT22;7323;50.848;4.334;2024-03-25T05:00:51;6.80;99.90
14475;DHT22;7323;50.848;4.334;2024-03-25T05:03:17;6.90;99.90
14475;DHT22;7323;50.848;4.334;2024-03-25T05:05:44;6.90;99.90
14475;DHT22;7323;50.848;4.334;2024-03-25T05:08:09;6.90;99.90
14475;DHT22;7323;50.848;4.334;2024-03-25T05:10:35;7.00;99.90
14475;DHT22;7323;50.848;4.334;2024-03-25T05:13:01;6.90;99.90
14475;DHT22;7323;50.848;4.334;2024-03-25T05:15:26;6.80;99.90
14475;DHT22;7323;50.848;4.334;2024-03-25T05:17:52;6.80;99.90
14475;DHT22;7323;50.848;4.334;2024-03-25T05:20:18;6.90;99.90
14475;DHT22;7323;50.848;4.334;2024-03-25T05:22:44;7.00;99.90
14475;DHT22;7323;50.848;4.334;2024-03-25T05:25:09;7.00;99.90
14475;DHT22;7323;50.848;4.334;2024-03-25T05:27:35;7.00;99.90
14475;DHT22;7323;50.848;4.334;2024-03-25T05:30:01;7.00;99.90
14475;DHT22;7323;50.848;4.334;2024-03-25T05:32:26;7.10;99.90
14475;DHT22;7323;50.848;4.334;2024-03-25T05:34:52;7.10;99.90
14475;DHT22;7323;50.848;4.334;2024-03-25T05:37:18;7.10;99.90
14475;DHT22;7323;50.848;4.334;2024-03-25T05:39:43;7.00;99.90
14475;DHT22;7323;50.848;4.334;2024-03-25T05:42:09;6.90;99.90
14475;DHT22;7323;50.848;4.334;2024-03-25T05:44:35;7.00;99.90
14475;DHT22;7323;50.848;4.334;2024-03-25T05:47:01;7.00;99.90
14475;DHT22;7323;50.848;4.334;2024-03-25T05:49:26;7.00;99.90
14475;DHT22;7323;50.848;4.334;2024-03-25T05:51:52;7.00;99.90
14475;DHT22;7323;50.848;4.334;2024-03-25T05:54:18;7.00;99.90
14475;DHT22;7323;50.848;4.334;2024-03-25T05:56:44;7.00;99.90
14475;DHT22;7323;50.848;4.334;2024-03-25T05:59:10;7.00;99.90
14475;DHT22;7323;50.848;4.334;2024-03-25T06:01:35;7.10;99.90
14475;DHT22;7323;50.848;4.334;2024-03-25T06:04:03;7.10;99.90
14475;DHT22;7323;50.848;4.334;2024-03-25T06:06:29;7.20;99.90
14475;DHT22;7323;50.848;4.334;2024-03-25T06:08:55;7.30;99.90
14475;DHT22;7323;50.848;4.334;2024-03-25T06:11:20;7.30;99.90
14475;DHT22;7323;50.848;4.334;2024-03-25T06:13:47;7.40;99.90
14475;DHT22;7323;50.848;4.334;2024-03-25T06:16:13;7.50;99.90
14475;DHT22;7323;50.848;4.334;2024-03-25T06:18:39;7.50;99.90
14475;DHT22;7323;50.848;4.334;2024-03-25T06:21:05;7.50;99.90
14475;DHT22;7323;50.848;4.334;2024-03-25T06:23:31;7.60;99.90
14475;DHT22;7323;50.848;4.334;2024-03-25T06:25:57;7.50;99.90
14475;DHT22;7323;50.848;4.334;2024-03-25T06:28:23;7.70;99.90
14475;DHT22;7323;50.848;4.334;2024-03-25T06:30:50;7.60;99.90
14475;DHT22;7323;50.848;4.334;2024-03-25T06:33:35;7.70;99.90
14475;DHT22;7323;50.848;4.334;2024-03-25T06:36:20;7.60;99.90
14475;DHT22;7323;50.848;4.334;2024-03-25T06:38:46;7.60;99.90
14475;DHT22;7323;50.848;4.334;2024-03-25T06:41:11;7.70;99.90
14475;DHT22;7323;50.848;4.334;2024-03-25T06:43:38;7.70;99.90
14475;DHT22;7323;50.848;4.334;2024-03-25T06:46:07;7.70;99.90
14475;DHT22;7323;50.848;4.334;2024-03-25T06:48:37;7.70;99.90
14475;DHT22;7323;50.848;4.334;2024-03-25T06:51:03;7.80;99.90
14475;DHT22;7323;50.848;4.334;2024-03-25T06:53:30;7.80;99.90
14475;DHT22;7323;50.848;4.334;2024-03-25T06:55:58;7.80;99.30
14475;DHT22;7323;50.848;4.334;2024-03-25T06:58:25;7.80;99.70
14475;DHT22;7323;50.848;4.334;2024-03-25T07:00:52;7.90;98.70
14475;DHT22;7323;50.848;4.334;2024-03-25T07:03:18;7.90;98.70
14475;DHT22;7323;50.848;4.334;2024-03-25T07:05:45;8.00;97.90
14475;DHT22;7323;50.848;4.334;2024-03-25T07:08:12;8.00;96.00
14475;DHT22;7323;50.848;4.334;2024-03-25T07:10:38;8.00;94.30
14475;DHT22;7323;50.848;4.334;2024-03-25T07:13:04;8.00;94.00
14475;DHT22;7323;50.848;4.334;2024-03-25T07:15:31;7.90;94.20
14475;DHT22;7323;50.848;4.334;2024-03-25T07:17:56;8.00;94.80
14475;DHT22;7323;50.848;4.334;2024-03-25T07:20:23;8.00;93.50
14475;DHT22;7323;50.848;4.334;2024-03-25T07:22:49;8.10;92.30
14475;DHT22;7323;50.848;4.334;2024-03-25T07:25:15;8.20;90.90
14475;DHT22;7323;50.848;4.334;2024-03-25T07:27:41;8.20;90.00
14475;DHT22;7323;50.848;4.334;2024-03-25T07:30:07;8.20;87.50
14475;DHT22;7323;50.848;4.334;2024-03-25T07:32:34;8.30;82.10
14475;DHT22;7323;50.848;4.334;2024-03-25T07:35:00;8.40;78.90
14475;DHT22;7323;50.848;4.334;2024-03-25T07:37:26;8.40;69.40
14475;DHT22;7323;50.848;4.334;2024-03-25T07:39:52;8.50;68.70
14475;DHT22;7323;50.848;4.334;2024-03-25T07:42:18;8.70;66.20
14475;DHT22;7323;50.848;4.334;2024-03-25T07:44:43;8.70;61.30
14475;DHT22;7323;50.848;4.334;2024-03-25T07:47:09;8.80;56.90
14475;DHT22;7323;50.848;4.334;2024-03-25T07:49:35;8.90;49.60
14475;DHT22;7323;50.848;4.334;2024-03-25T07:52:01;9.00;46.90
14475;DHT22;7323;50.848;4.334;2024-03-25T07:54:28;9.10;41.60
14475;DHT22;7323;50.848;4.334;2024-03-25T07:56:54;9.20;35.30
14475;DHT22;7323;50.848;4.334;2024-03-25T07:59:19;9.30;30.60
14475;DHT22;7323;50.848;4.334;2024-03-25T08:01:45;9.40;25.70
14475;DHT22;7323;50.848;4.334;2024-03-25T08:04:11;9.50;20.70
14475;DHT22;7323;50.848;4.334;2024-03-25T08:06:36;9.60;18.00
14475;DHT22;7323;50.848;4.334;2024-03-25T08:09:02;9.70;13.10
14475;DHT22;7323;50.848;4.334;2024-03-25T08:11:32;9.70;7.50
14475;DHT22;7323;50.848;4.334;2024-03-25T08:13:58;9.50;5.80
14475;DHT22;7323;50.848;4.334;2024-03-25T08:16:24;9.50;11.50
14475;DHT22;7323;50.848;4.334;2024-03-25T08:18:50;9.60;11.10
14475;DHT22;7323;50.848;4.334;2024-03-25T08:21:16;9.70;8.30
14475;DHT22;7323;50.848;4.334;2024-03-25T08:23:44;9.70;7.20
14475;DHT22;7323;50.848;4.334;2024-03-25T08:26:11;9.80;5.00
14475;DHT22;7323;50.848;4.334;2024-03-25T08:28:36;9.70;2.30
14475;DHT22;7323;50.848;4.334;2024-03-25T08:31:03;9.70;4.80
14475;DHT22;7323;50.848;4.334;2024-03-25T08:33:29;9.70;4.30
14475;DHT22;7323;50.848;4.334;2024-03-25T08:35:55;9.90;3.40
14475;DHT22;7323;50.848;4.334;2024-03-25T08:38:21;9.90;2.70
14475;DHT22;7323;50.848;4.334;2024-03-25T08:40:47;9.80;1.30
14475;DHT22;7323;50.848;4.334;2024-03-25T08:43:12;9.70;5.70
14475;DHT22;7323;50.848;4.334;2024-03-25T08:45:38;9.70;9.80
14475;DHT22;7323;50.848;4.334;2024-03-25T08:48:04;9.90;6.20
14475;DHT22;7323;50.848;4.334;2024-03-25T08:50:30;10.20;1.90
14475;DHT22;7323;50.848;4.334;2024-03-25T08:52:55;10.20;1.00
14475;DHT22;7323;50.848;4.334;2024-03-25T08:55:21;10.30;1.00
14475;DHT22;7323;50.848;4.334;2024-03-25T08:57:47;10.40;1.00
14475;DHT22;7323;50.848;4.334;2024-03-25T09:00:13;10.40;1.00
14475;DHT22;7323;50.848;4.334;2024-03-25T09:02:38;10.60;1.00
14475;DHT22;7323;50.848;4.334;2024-03-25T09:05:04;10.70;1.00
14475;DHT22;7323;50.848;4.334;2024-03-25T09:07:31;10.80;1.00
14475;DHT22;7323;50.848;4.334;2024-03-25T09:09:57;10.90;1.00
14475;DHT22;7323;50.848;4.334;2024-03-25T09:12:41;10.90;1.00
14475;DHT22;7323;50.848;4.334;2024-03-25T09:15:07;10.90;1.00
14475;DHT22;7323;50.848;4.334;2024-03-25T09:17:32;11.00;1.00
14475;DHT22;7323;50.848;4.334;2024-03-25T09:19:58;11.20;1.00
14475;DHT22;7323;50.848;4.334;2024-03-25T09:22:24;11.20;1.00
14475;DHT22;7323;50.848;4.334;2024-03-25T09:24:49;11.30;1.00
14475;DHT22;7323;50.848;4.334;2024-03-25T09:27:15;11.30;1.00
14475;DHT22;7323;50.848;4.334;2024-03-25T09:29:43;11.30;1.00
14475;DHT22;7323;50.848;4.334;2024-03-25T09:32:09;11.30;1.00
14475;DHT22;7323;50.848;4.334;2024-03-25T09:34:35;11.40;1.00
14475;DHT22;7323;50.848;4.334;2024-03-25T09:37:00;11.40;1.00
14475;DHT22;7323;50.848;4.334;2024-03-25T09:39:26;11.40;1.00
14475;DHT22;7323;50.848;4.334;2024-03-25T09:41:55;11.50;1.00
14475;DHT22;7323;50.848;4.334;2024-03-25T09:44:25;11.60;1.00
14475;DHT22;7323;50.848;4.334;2024-03-25T09:46:51;11.50;1.00
14475;DHT22;7323;50.848;4.334;2024-03-25T09:49:17;11.50;1.00
14475;DHT22;7323;50.848;4.334;2024-03-25T09:51:43;11.50;1.00
14475;DHT22;7323;50.848;4.334;2024-03-25T09:54:09;11.50;1.00
14475;DHT22;7323;50.848;4.334;2024-03-25T09:56:35;11.50;1.00
14475;DHT22;7323;50.848;4.334;2024-03-25T09:59:03;11.60;1.00
14475;DHT22;7323;50.848;4.334;2024-03-25T10:01:29;11.70;1.00
14475;DHT22;7323;50.848;4.334;2024-03-25T10:03:55;11.90;1.00
14475;DHT22;7323;50.848;4.334;2024-03-25T10:06:20;12.10;1.00
14475;DHT22;7323;50.848;4.334;2024-03-25T10:08:46;12.20;1.00
14475;DHT22;7323;50.848;4.334;2024-03-25T10:11:12;12.30;1.00
14475;DHT22;7323;50.848;4.334;2024-03-25T10:13:40;12.50;1.00
14475;DHT22;7323;50.848;4.334;2024-03-25T10:16:07;12.60;1.00
14475;DHT22;7323;50.848;4.334;2024-03-25T10:18:33;12.60;1.00
14475;DHT22;7323;50.848;4.334;2024-03-25T10:20:59;12.60;1.00
14475;DHT22;7323;50.848;4.334;2024-03-25T10:23:25;12.80;1.00
14475;DHT22;7323;50.848;4.334;2024-03-25T10:25:54;12.80;1.00
14475;DHT22;7323;50.848;4.334;2024-03-25T10:28:20;12.70;1.00
14475;DHT22;7323;50.848;4.334;2024-03-25T10:30:46;12.70;1.00
14475;DHT22;7323;50.848;4.334;2024-03-25T10:33:12;12.70;1.00
14475;DHT22;7323;50.848;4.334;2024-03-25T10:35:40;12.70;1.00
14475;DHT22;7323;50.848;4.334;2024-03-25T10:38:07;12.80;1.00
14475;DHT22;7323;50.848;4.334;2024-03-25T10:40:38;13.00;1.00
14475;DHT22;7323;50.848;4.334;2024-03-25T10:43:09;13.30;99.90
14475;DHT22;7323;50.848;4.334;2024-03-25T10:45:45;13.40;99.90
14475;DHT22;7323;50.848;4.334;2024-03-25T10:48:28;13.50;99.90
14475;DHT22;7323;50.848;4.334;2024-03-25T10:50:56;13.60;99.90
14475;DHT22;7323;50.848;4.334;2024-03-25T10:53:22;13.60;99.90
14475;DHT22;7323;50.848;4.334;2024-03-25T10:55:55;13.50;1.00
14475;DHT22;7323;50.848;4.334;2024-03-25T10:58:22;13.50;92.40
14475;DHT22;7323;50.848;4.334;2024-03-25T11:00:52;13.80;99.90
14475;DHT22;7323;50.848;4.334;2024-03-25T11:03:22;14.00;1.00
14475;DHT22;7323;50.848;4.334;2024-03-25T11:05:48;14.10;99.90
14475;DHT22;7323;50.848;4.334;2024-03-25T11:08:16;14.10;99.90
14475;DHT22;7323;50.848;4.334;2024-03-25T11:10:46;14.30;99.90
14475;DHT22;7323;50.848;4.334;2024-03-25T11:13:19;14.30;62.70
14475;DHT22;7323;50.848;4.334;2024-03-25T11:15:46;14.30;1.00
14475;DHT22;7323;50.848;4.334;2024-03-25T11:18:13;14.60;99.90
14475;DHT22;7323;50.848;4.334;2024-03-25T11:20:40;14.60;99.90
14475;DHT22;7323;50.848;4.334;2024-03-25T11:23:09;14.70;99.90
14475;DHT22;7323;50.848;4.334;2024-03-25T11:25:36;14.80;1.00
14475;DHT22;7323;50.848;4.334;2024-03-25T11:28:02;14.70;99.90
14475;DHT22;7323;50.848;4.334;2024-03-25T11:30:30;14.40;1.00
14475;DHT22;7323;50.848;4.334;2024-03-25T11:32:57;14.40;39.30
14475;DHT22;7323;50.848;4.334;2024-03-25T11:35:24;14.70;1.00
14475;DHT22;7323;50.848;4.334;2024-03-25T11:37:50;14.90;1.00
14475;DHT22;7323;50.848;4.334;2024-03-25T11:40:17;15.20;99.90
14475;DHT22;7323;50.848;4.334;2024-03-25T11:42:44;15.30;1.00
14475;DHT22;7323;50.848;4.334;2024-03-25T11:45:20;15.30;99.90
14475;DHT22;7323;50.848;4.334;2024-03-25T11:47:48;15.20;99.90
14475;DHT22;7323;50.848;4.334;2024-03-25T11:50:18;14.90;99.90
14475;DHT22;7323;50.848;4.334;2024-03-25T11:52:44;14.70;1.00
14475;DHT22;7323;50.848;4.334;2024-03-25T11:55:10;14.80;1.00
14475;DHT22;7323;50.848;4.334;2024-03-25T11:57:37;14.90;1.00
14475;DHT22;7323;50.848;4.334;2024-03-25T12:00:04;14.90;99.90
14475;DHT22;7323;50.848;4.334;2024-03-25T12:02:36;14.90;59.20
14475;DHT22;7323;50.848;4.334;2024-03-25T12:05:03;14.70;1.00
14475;DHT22;7323;50.848;4.334;2024-03-25T12:07:31;14.40;1.00
14475;DHT22;7323;50.848;4.334;2024-03-25T12:09:58;14.40;1.00
14475;DHT22;7323;50.848;4.334;2024-03-25T12:12:43;14.60;51.10
14475;DHT22;7323;50.848;4.334;2024-03-25T12:15:10;14.70;99.90
14475;DHT22;7323;50.848;4.334;2024-03-25T12:17:36;14.80;99.90
14475;DHT22;7323;50.848;4.334;2024-03-25T12:20:03;14.70;99.90
14475;DHT22;7323;50.848;4.334;2024-03-25T12:22:30;14.00;99.90
14475;DHT22;7323;50.848;4.334;2024-03-25T12:25:03;13.50;99.90
14475;DHT22;7323;50.848;4.334;2024-03-25T12:27:32;13.10;1.00
14475;DHT22;7323;50.848;4.334;2024-03-25T12:30:04;13.20;99.90
14475;DHT22;7323;50.848;4.334;2024-03-25T12:32:40;13.40;1.00
14475;DHT22;7323;50.848;4.334;2024-03-25T12:35:08;13.60;1.00
14475;DHT22;7323;50.848;4.334;2024-03-25T12:37:34;13.40;66.90
14475;DHT22;7323;50.848;4.334;2024-03-25T12:39:59;13.20;54.60
14475;DHT22;7323;50.848;4.334;2024-03-25T12:42:26;13.30;1.00
14475;DHT22;7323;50.848;4.334;2024-03-25T12:44:55;13.60;1.00
14475;DHT22;7323;50.848;4.334;2024-03-25T12:47:21;13.80;1.00
14475;DHT22;7323;50.848;4.334;2024-03-25T12:49:46;14.10;99.90
14475;DHT22;7323;50.848;4.334;2024-03-25T12:52:12;14.30;99.90
14475;DHT22;7323;50.848;4.334;2024-03-25T12:54:38;14.30;99.90
14475;DHT22;7323;50.848;4.334;2024-03-25T12:57:05;14.10;1.00
14475;DHT22;7323;50.848;4.334;2024-03-25T12:59:30;13.80;1.00
14475;DHT22;7323;50.848;4.334;2024-03-25T13:01:56;13.90;25.40
14475;DHT22;7323;50.848;4.334;2024-03-25T13:04:22;14.20;84.80
14475;DHT22;7323;50.848;4.334;2024-03-25T13:06:48;14.50;1.00
14475;DHT22;7323;50.848;4.334;2024-03-25T13:09:13;14.80;99.90
14475;DHT22;7323;50.848;4.334;2024-03-25T13:11:39;14.90;56.10
14475;DHT22;7323;50.848;4.334;2024-03-25T13:14:05;15.10;1.00
14475;DHT22;7323;50.848;4.334;2024-03-25T13:16:33;15.20;1.00
14475;DHT22;7323;50.848;4.334;2024-03-25T13:18:59;15.40;1.00
14475;DHT22;7323;50.848;4.334;2024-03-25T13:21:25;15.30;1.00
14475;DHT22;7323;50.848;4.334;2024-03-25T13:23:52;15.50;1.00
14475;DHT22;7323;50.848;4.334;2024-03-25T13:26:18;15.00;99.90
14475;DHT22;7323;50.848;4.334;2024-03-25T13:28:43;15.00;99.90
14475;DHT22;7323;50.848;4.334;2024-03-25T13:31:09;14.70;99.90
14475;DHT22;7323;50.848;4.334;2024-03-25T13:33:35;14.90;99.90
14475;DHT22;7323;50.848;4.334;2024-03-25T13:36:04;15.10;99.90
14475;DHT22;7323;50.848;4.334;2024-03-25T13:38:29;14.60;99.90
14475;DHT22;7323;50.848;4.334;2024-03-25T13:40:55;14.80;99.90
14475;DHT22;7323;50.848;4.334;2024-03-25T13:43:21;15.00;99.90
14475;DHT22;7323;50.848;4.334;2024-03-25T13:45:48;15.00;99.90
14475;DHT22;7323;50.848;4.334;2024-03-25T13:48:15;15.00;99.90
14475;DHT22;7323;50.848;4.334;2024-03-25T13:50:41;15.00;99.90
14475;DHT22;7323;50.848;4.334;2024-03-25T13:53:08;15.00;99.90
14475;DHT22;7323;50.848;4.334;2024-03-25T13:55:34;15.20;99.90
14475;DHT22;7323;50.848;4.334;2024-03-25T13:58:00;15.40;99.90
14475;DHT22;7323;50.848;4.334;2024-03-25T14:00:27;15.50;92.80
14475;DHT22;7323;50.848;4.334;2024-03-25T14:02:54;15.60;42.90
14475;DHT22;7323;50.848;4.334;2024-03-25T14:05:20;15.80;47.40
14475;DHT22;7323;50.848;4.334;2024-03-25T14:07:46;15.00;1.00
14475;DHT22;7323;50.848;4.334;2024-03-25T14:10:12;14.40;9.40
14475;DHT22;7323;50.848;4.334;2024-03-25T14:12:39;14.20;99.90
14475;DHT22;7323;50.848;4.334;2024-03-25T14:15:05;14.40;99.90
14475;DHT22;7323;50.848;4.334;2024-03-25T14:17:32;14.60;99.90
14475;DHT22;7323;50.848;4.334;2024-03-25T14:19:57;14.60;99.90
14475;DHT22;7323;50.848;4.334;2024-03-25T14:22:23;14.60;99.90
14475;DHT22;7323;50.848;4.334;2024-03-25T14:24:49;14.40;99.90
14475;DHT22;7323;50.848;4.334;2024-03-25T14:27:15;14.40;1.00
14475;DHT22;7323;50.848;4.334;2024-03-25T14:29:41;14.60;99.90
14475;DHT22;7323;50.848;4.334;2024-03-25T14:32:08;14.70;99.90
14475;DHT22;7323;50.848;4.334;2024-03-25T14:34:33;15.00;99.90
14475;DHT22;7323;50.848;4.334;2024-03-25T14:36:59;15.00;99.90
14475;DHT22;7323;50.848;4.334;2024-03-25T14:39:27;15.10;99.90
14475;DHT22;7323;50.848;4.334;2024-03-25T14:41:53;14.70;99.90
14475;DHT22;7323;50.848;4.334;2024-03-25T14:44:19;14.90;99.90
14475;DHT22;7323;50.848;4.334;2024-03-25T14:46:44;15.20;99.90
14475;DHT22;7323;50.848;4.334;2024-03-25T14:49:10;15.30;99.90
14475;DHT22;7323;50.848;4.334;2024-03-25T14:51:36;15.60;99.90
14475;DHT22;7323;50.848;4.334;2024-03-25T14:54:02;15.70;99.90
14475;DHT22;7323;50.848;4.334;2024-03-25T14:56:29;15.80;99.90
14475;DHT22;7323;50.848;4.334;2024-03-25T14:58:55;16.00;99.90
14475;DHT22;7323;50.848;4.334;2024-03-25T15:01:21;16.00;99.20
14475;DHT22;7323;50.848;4.334;2024-03-25T15:03:46;16.10;62.10
14475;DHT22;7323;50.848;4.334;2024-03-25T15:06:13;15.80;1.00
14475;DHT22;7323;50.848;4.334;2024-03-25T15:08:38;15.20;1.00
14475;DHT22;7323;50.848;4.334;2024-03-25T15:11:05;15.00;8.20
14475;DHT22;7323;50.848;4.334;2024-03-25T15:13:31;15.00;76.10
14475;DHT22;7323;50.848;4.334;2024-03-25T15:15:57;14.70;79.50
14475;DHT22;7323;50.848;4.334;2024-03-25T15:18:23;14.50;99.90
14475;DHT22;7323;50.848;4.334;2024-03-25T15:21:04;14.30;99.90
14475;DHT22;7323;50.848;4.334;2024-03-25T15:23:33;14.40;99.90
14475;DHT22;7323;50.848;4.334;2024-03-25T15:25:59;14.70;99.90
14475;DHT22;7323;50.848;4.334;2024-03-25T15:28:24;14.80;99.90
14475;DHT22;7323;50.848;4.334;2024-03-25T15:30:52;15.00;99.90
14475;DHT22;7323;50.848;4.334;2024-03-25T15:33:18;15.00;99.90
14475;DHT22;7323;50.848;4.334;2024-03-25T15:35:44;15.20;85.90
14475;DHT22;7323;50.848;4.334;2024-03-25T15:38:10;15.30;58.10
14475;DHT22;7323;50.848;4.334;2024-03-25T15:40:37;15.30;33.30
14475;DHT22;7323;50.848;4.334;2024-03-25T15:43:02;15.10;20.30
14475;DHT22;7323;50.848;4.334;2024-03-25T15:45:29;14.50;99.90
14475;DHT22;7323;50.848;4.334;2024-03-25T15:47:55;14.60;99.90
14475;DHT22;7323;50.848;4.334;2024-03-25T15:50:21;14.60;1.00
14475;DHT22;7323;50.848;4.334;2024-03-25T15:52:50;14.60;1.00
14475;DHT22;7323;50.848;4.334;2024-03-25T15:55:15;14.40;1.00